This is the latest recevied weather packets stored in our database for station/object OH6GPB-4. If no packets are shown the sender has not sent any weather packets the latest 10 day(s).
| Time | Temp. | Humidity | Pressure | Rain* | Wind** | Luminosity | Snow |
|---|---|---|---|---|---|---|---|
| 1777603649 | 3.89° C | 88% | 1016.8 hPa | 0 mm | - | 18 W/m² | - |
| 1777601842 | 2.78° C | 90% | 1016.9 hPa | 0 mm | - | 5 W/m² | - |
| 1777600056 | 2.78° C | 87% | 1016.9 hPa | 0 mm | - | 0 W/m² | - |
| 1777598247 | 3.33° C | 86% | 1016.9 hPa | 0 mm | - | 0 W/m² | - |
| 1777596444 | 4.44° C | 86% | 1016.9 hPa | 0 mm | - | 0 W/m² | - |
| 1777594645 | 3.89° C | 88% | 1017.2 hPa | 0 mm | - | 0 W/m² | - |
| 1777592842 | 3.33° C | 86% | 1017.4 hPa | 0 mm | - | 0 W/m² | - |
| 1777591057 | 4.44° C | 85% | 1017.4 hPa | 0 mm | - | 0 W/m² | - |
| 1777589244 | 5° C | 83% | 1017.4 hPa | 0 mm | - | 0 W/m² | - |
| 1777587456 | 5.56° C | 82% | 1017.5 hPa | 0 mm | - | 0 W/m² | - |
| 1777585647 | 6.11° C | 81% | 1017.4 hPa | 0 mm | - | 0 W/m² | - |
| 1777583847 | 6.67° C | 79% | 1017.4 hPa | 0 mm | - | 0 W/m² | - |
| 1777582045 | 7.22° C | 77% | 1017.4 hPa | 0 mm | - | 0 W/m² | - |
| 1777580259 | 7.78° C | 74% | 1017.4 hPa | 0 mm | - | 0 W/m² | - |
| 1777578451 | 8.33° C | 71% | 1017.6 hPa | 0 mm | - | 0 W/m² | - |
| 1777576655 | 9.44° C | 68% | 1017.6 hPa | 0 mm | - | 0 W/m² | - |
| 1777574858 | 10.56° C | 64% | 1017.7 hPa | 0 mm | - | 5 W/m² | - |
| 1777573055 | 11.67° C | 59% | 1017.6 hPa | 0 mm | - | 14 W/m² | - |
| 1777571249 | 13.33° C | 55% | 1017.5 hPa | 0 mm | - | 65 W/m² | - |
| 1777569453 | 13.89° C | 54% | 1017.4 hPa | 0 mm | - | 113 W/m² | - |
| 1777567644 | 14.44° C | 51% | 1017.4 hPa | 0 mm | - | 167 W/m² | - |
| 1777565842 | 14.44° C | 51% | 1017.4 hPa | 0 mm | - | 227 W/m² | - |
| 1777564054 | 13.89° C | 53% | 1017.4 hPa | 0 mm | - | 209 W/m² | - |
| 1777562251 | 13.89° C | 53% | 1017.5 hPa | 0 mm | - | 58 W/m² | - |
| 1777560446 | 13.89° C | 53% | 1017.8 hPa | 0 mm | - | 243 W/m² | - |
* Rain latest hour (hover to see other rain measurements)
** Current wind speed in m/s (hover to see current wind gust speed)